Time;durP1;ratioP1;P1;durP2;ratioP2;P2;SDS_P1;SDS_P2;PMS_P1;PMS_P2;Temp;Humidity;BMP_temperature;BMP_pressure;BME280_temperature;BME280_humidity;BME280_pressure;Samples;Min_cycle;Max_cycle;Signal;HPM_P1;HPM_P2
2023/07/06 00:01:00;;;;;;;0.90;0.90;;;;;;;18.41;82.47;95652.81;4368018;32;20196;-63
2023/07/06 00:03:26;;;;;;;0.60;0.60;;;;;;;18.38;83.05;95656.16;4360517;32;20196;-63
2023/07/06 00:05:52;;;;;;;1.03;1.03;;;;;;;18.38;82.65;95652.69;4349799;32;20207;-63
2023/07/06 00:08:17;;;;;;;1.07;0.97;;;;;;;18.29;81.51;95652.78;4355735;32;20198;-63
2023/07/06 00:10:44;;;;;;;1.30;1.20;;;;;;;18.30;82.78;95648.97;4358127;32;20236;-63
2023/07/06 00:13:11;;;;;;;2.70;1.53;;;;;;;18.18;83.32;95652.44;4360388;32;20193;-63
2023/07/06 00:15:36;;;;;;;1.27;1.17;;;;;;;18.25;82.75;95661.88;4353941;32;20197;-63
2023/07/06 00:18:05;;;;;;;0.40;0.40;;;;;;;18.42;82.92;95669.72;4359482;32;20219;-63
2023/07/06 00:20:38;;;;;;;0.80;0.80;;;;;;;18.37;82.16;95665.34;4364813;32;20230;-63
2023/07/06 00:23:13;;;;;;;1.23;1.13;;;;;;;18.33;83.24;95664.44;4354818;32;20197;-62
2023/07/06 00:25:41;;;;;;;9.60;1.17;;;;;;;18.10;83.19;95655.22;4352317;32;20242;-63
2023/07/06 00:28:09;;;;;;;0.60;0.60;;;;;;;18.31;83.19;95655.94;4353956;32;20193;-63
2023/07/06 00:30:53;;;;;;;1.37;1.27;;;;;;;18.23;83.24;95659.50;4364260;32;20216;-63
2023/07/06 00:33:20;;;;;;;0.97;0.97;;;;;;;18.12;83.50;95659.16;4359142;32;20193;-63
2023/07/06 00:35:46;;;;;;;1.43;1.17;;;;;;;18.19;84.01;95659.38;4359276;32;20204;-63
2023/07/06 00:38:18;;;;;;;0.57;0.57;;;;;;;18.22;83.18;95657.16;4351715;32;20197;-63
2023/07/06 00:40:49;;;;;;;2.00;1.03;;;;;;;18.17;82.03;95660.84;4351583;32;20193;-63
2023/07/06 00:43:18;;;;;;;0.97;0.97;;;;;;;18.22;82.16;95657.94;4351815;32;20236;-63
2023/07/06 00:45:45;;;;;;;0.73;0.73;;;;;;;18.20;83.23;95657.50;4358861;32;20216;-63
2023/07/06 00:48:31;;;;;;;3.20;1.33;;;;;;;18.21;82.34;95653.69;4358575;32;20196;-62
2023/07/06 00:51:02;;;;;;;0.63;0.63;;;;;;;18.26;82.89;95658.84;4358117;32;20306;-63
2023/07/06 00:53:33;;;;;;;0.70;0.70;;;;;;;18.03;82.87;95646.94;4366846;32;20246;-63
2023/07/06 00:56:01;;;;;;;0.70;0.70;;;;;;;18.07;84.00;95645.16;4359438;32;20211;-63
2023/07/06 00:58:38;;;;;;;0.70;0.70;;;;;;;18.30;83.10;95642.81;4364145;32;20192;-64
2023/07/06 01:01:07;;;;;;;0.83;0.67;;;;;;;18.27;81.91;95640.84;4371087;32;20188;-63
2023/07/06 01:03:43;;;;;;;2.13;1.93;;;;;;;18.35;81.80;95643.41;4351277;32;20336;-63
2023/07/06 01:06:25;;;;;;;0.87;0.87;;;;;;;18.32;81.91;95641.37;4363539;32;20219;-63
2023/07/06 01:08:52;;;;;;;1.73;1.33;;;;;;;18.11;82.05;95628.03;4359516;32;20201;-63
2023/07/06 01:11:19;;;;;;;1.23;1.23;;;;;;;18.28;82.55;95620.91;4354616;32;20215;-63
2023/07/06 01:13:53;;;;;;;0.60;0.60;;;;;;;17.98;83.46;95622.97;4360306;32;20294;-63
2023/07/06 01:16:38;;;;;;;0.57;0.57;;;;;;;18.08;83.60;95620.63;4359960;32;20221;-63
2023/07/06 01:19:55;;;;;;;0.87;0.80;;;;;;;18.15;83.07;95620.88;4359243;32;20188;-63
2023/07/06 01:22:33;;;;;;;0.83;0.80;;;;;;;18.04;83.42;95618.97;4331141;32;20204;-63
2023/07/06 01:25:35;;;;;;;1.10;1.10;;;;;;;18.29;83.35;95612.50;4354580;32;20290;-63
2023/07/06 01:28:17;;;;;;;0.80;0.80;;;;;;;18.32;82.39;95617.19;4374795;32;20208;-63
2023/07/06 01:31:05;;;;;;;0.83;0.83;;;;;;;18.18;82.96;95608.69;4357060;32;20197;-63
2023/07/06 01:33:38;;;;;;;0.53;0.53;;;;;;;18.32;82.65;95605.66;4348001;32;20188;-63
2023/07/06 01:36:37;;;;;;;0.70;0.70;;;;;;;18.31;81.87;95607.56;4359118;32;20201;-63
2023/07/06 01:39:26;;;;;;;1.10;1.10;;;;;;;18.10;82.04;95614.94;4345753;32;20211;-63
2023/07/06 01:42:10;;;;;;;0.87;0.87;;;;;;;18.00;82.64;95620.75;4350900;32;20197;-63
2023/07/06 01:44:43;;;;;;;0.83;0.83;;;;;;;18.09;82.87;95621.44;4339692;32;20185;-64
2023/07/06 01:47:09;;;;;;;0.80;0.77;;;;;;;18.01;82.00;95616.97;4359146;32;20201;-63
2023/07/06 01:49:35;;;;;;;4.17;0.63;;;;;;;18.03;82.25;95614.72;4361473;32;20193;-64
2023/07/06 01:52:04;;;;;;;0.73;0.73;;;;;;;18.08;83.00;95609.16;4341618;32;20288;-63
2023/07/06 01:54:38;;;;;;;0.43;0.43;;;;;;;17.87;82.90;95609.22;4346084;32;20231;-64
2023/07/06 01:57:07;;;;;;;1.03;0.97;;;;;;;17.79;83.57;95613.56;4347805;32;20252;-63
2023/07/06 01:59:37;;;;;;;0.87;0.73;;;;;;;17.70;83.41;95618.22;4349589;32;20265;-63
2023/07/06 02:02:07;;;;;;;1.57;1.10;;;;;;;17.72;82.81;95607.94;4336416;32;20197;-63
2023/07/06 02:04:36;;;;;;;1.00;1.00;;;;;;;17.70;82.15;95606.69;4362418;32;20193;-63
2023/07/06 02:07:05;;;;;;;1.57;1.47;;;;;;;17.61;84.06;95608.66;4357644;32;20243;-63
2023/07/06 02:09:30;;;;;;;0.63;0.63;;;;;;;17.46;83.81;95607.34;4357278;32;20243;-63
2023/07/06 02:11:55;;;;;;;0.80;0.80;;;;;;;17.60;83.20;95602.50;4357438;32;20245;-64
2023/07/06 02:14:22;;;;;;;6.33;1.00;;;;;;;17.61;83.38;95611.34;4356138;32;20196;-63
2023/07/06 02:16:51;;;;;;;0.93;0.93;;;;;;;17.49;84.32;95609.38;4357497;32;20197;-63
2023/07/06 02:19:20;;;;;;;1.00;0.90;;;;;;;17.60;83.79;95615.94;4343762;32;20201;-63
2023/07/06 02:21:49;;;;;;;0.80;0.80;;;;;;;17.56;83.37;95609.63;4360805;32;20197;-63
2023/07/06 02:24:16;;;;;;;0.73;0.73;;;;;;;17.63;83.19;95612.59;4358522;32;20207;-63
2023/07/06 02:26:41;;;;;;;4.27;0.80;;;;;;;17.34;82.43;95612.69;4356342;32;20208;-63
2023/07/06 02:29:06;;;;;;;0.37;0.37;;;;;;;17.43;82.81;95605.34;4358554;32;20213;-63
2023/07/06 02:31:34;;;;;;;0.83;0.83;;;;;;;17.49;83.13;95612.06;4352482;32;20242;-63
2023/07/06 02:34:00;;;;;;;0.63;0.63;;;;;;;17.37;83.09;95618.19;4359111;32;20224;-63
2023/07/06 02:36:25;;;;;;;0.77;0.77;;;;;;;17.28;83.70;95616.66;4365636;32;20280;-63
2023/07/06 02:38:51;;;;;;;5.40;1.10;;;;;;;17.45;83.12;95619.22;4373414;32;20197;-63
2023/07/06 02:41:17;;;;;;;0.83;0.83;;;;;;;17.49;82.75;95615.53;4373675;32;20281;-63
2023/07/06 02:43:43;;;;;;;0.67;0.67;;;;;;;17.40;82.48;95617.53;4360512;32;20196;-64
2023/07/06 02:46:08;;;;;;;0.67;0.67;;;;;;;17.26;82.58;95621.56;4360524;32;20196;-63
2023/07/06 02:48:34;;;;;;;0.80;0.80;;;;;;;17.39;82.72;95631.25;4376338;32;20184;-63
2023/07/06 02:51:00;;;;;;;0.53;0.53;;;;;;;17.38;82.12;95621.66;4374684;32;20200;-63
2023/07/06 02:53:27;;;;;;;1.00;1.00;;;;;;;17.24;84.17;95619.25;4376208;32;20188;-63
2023/07/06 02:55:54;;;;;;;1.30;1.20;;;;;;;17.25;83.16;95614.66;4371783;32;20233;-63
2023/07/06 02:58:19;;;;;;;0.50;0.50;;;;;;;17.13;83.61;95616.16;4365173;32;20216;-63
2023/07/06 03:00:47;;;;;;;0.73;0.73;;;;;;;17.22;83.26;95612.63;4373796;32;20234;-63
2023/07/06 03:03:14;;;;;;;0.87;0.87;;;;;;;17.22;84.24;95609.97;4351829;32;20274;-63
2023/07/06 03:05:43;;;;;;;0.57;0.57;;;;;;;16.96;83.86;95616.28;4351503;32;20207;-63
2023/07/06 03:08:09;;;;;;;0.80;0.80;;;;;;;17.26;83.71;95608.16;4371002;32;20209;-63
2023/07/06 03:10:34;;;;;;;0.83;0.60;;;;;;;17.14;83.08;95615.06;4360895;32;20243;-63
2023/07/06 03:12:59;;;;;;;1.00;1.00;;;;;;;17.15;84.08;95608.56;4373922;32;20229;-63
2023/07/06 03:15:28;;;;;;;1.60;0.83;;;;;;;17.07;83.30;95604.06;4359708;32;20324;-63
2023/07/06 03:17:55;;;;;;;1.17;1.17;;;;;;;17.32;83.20;95604.19;4374278;32;20253;-63
2023/07/06 03:20:20;;;;;;;0.80;0.80;;;;;;;17.22;82.76;95612.63;4361743;32;20216;-63
2023/07/06 03:22:48;;;;;;;0.50;0.50;;;;;;;17.09;85.08;95604.53;4375527;32;20237;-63
2023/07/06 03:25:15;;;;;;;0.57;0.57;;;;;;;17.06;83.89;95607.84;4373615;32;20184;-63
2023/07/06 03:27:41;;;;;;;1.80;1.70;;;;;;;17.05;84.23;95605.50;4370813;32;20197;-63
2023/07/06 03:30:10;;;;;;;2.00;0.90;;;;;;;17.12;83.65;95600.41;4356865;32;20193;-63
2023/07/06 03:32:37;;;;;;;0.43;0.43;;;;;;;17.11;83.88;95601.50;4362817;32;20208;-63
2023/07/06 03:35:09;;;;;;;3.67;0.90;;;;;;;17.17;83.16;95600.22;4373679;32;20240;-63
2023/07/06 03:37:35;;;;;;;1.00;0.90;;;;;;;16.98;84.45;95605.25;4369589;32;20196;-63
2023/07/06 03:40:00;;;;;;;0.90;0.90;;;;;;;17.19;83.40;95606.03;4365966;32;20197;-63
2023/07/06 03:42:25;;;;;;;0.87;0.87;;;;;;;17.08;83.78;95600.25;4372767;32;20227;-62
2023/07/06 03:44:55;;;;;;;2.20;1.03;;;;;;;17.24;83.21;95602.38;4357740;32;20232;-63
2023/07/06 03:47:23;;;;;;;0.53;0.53;;;;;;;17.18;83.16;95607.16;4358273;32;20205;-63
2023/07/06 03:49:49;;;;;;;0.67;0.67;;;;;;;17.17;83.27;95606.34;4362898;32;20250;-62
2023/07/06 03:52:17;;;;;;;0.90;0.90;;;;;;;17.13;82.36;95607.34;4365914;32;20230;-63
2023/07/06 03:54:42;;;;;;;1.00;1.00;;;;;;;17.23;83.06;95611.53;4356659;32;20243;-63
2023/07/06 03:57:07;;;;;;;1.20;0.77;;;;;;;17.05;83.08;95600.91;4357877;32;20201;-63
2023/07/06 03:59:33;;;;;;;1.10;1.10;;;;;;;17.23;82.91;95590.88;4375817;32;20192;-63
2023/07/06 04:02:00;;;;;;;1.13;1.13;;;;;;;17.15;82.61;95605.91;4341744;32;20228;-63
2023/07/06 04:04:28;;;;;;;0.80;0.80;;;;;;;16.99;82.63;95607.59;4360108;32;20260;-63
2023/07/06 04:06:55;;;;;;;4.27;0.97;;;;;;;17.10;82.85;95602.63;4355951;32;20239;-63
2023/07/06 04:09:25;;;;;;;1.07;0.97;;;;;;;17.30;82.96;95604.50;4374489;32;20255;-63
2023/07/06 04:11:52;;;;;;;0.77;0.77;;;;;;;17.22;82.19;95607.28;4359711;32;20238;-63
2023/07/06 04:14:21;;;;;;;0.87;0.87;;;;;;;17.21;82.71;95608.38;4347131;32;20223;-63
2023/07/06 04:16:46;;;;;;;0.80;0.80;;;;;;;17.13;81.56;95610.81;4351901;32;20197;-63
2023/07/06 04:19:12;;;;;;;1.03;1.03;;;;;;;17.15;83.62;95615.84;4367523;32;20208;-63
2023/07/06 04:21:37;;;;;;;1.10;1.10;;;;;;;17.30;82.88;95617.91;4360937;32;20235;-63
2023/07/06 04:24:04;;;;;;;0.90;0.90;;;;;;;17.24;83.13;95618.47;4354962;32;20207;-63
2023/07/06 04:26:34;;;;;;;0.43;0.43;;;;;;;17.33;81.99;95617.25;4364929;32;20185;-63
2023/07/06 04:28:59;;;;;;;1.40;1.30;;;;;;;17.27;81.43;95615.88;4357388;32;20208;-63
2023/07/06 04:31:24;;;;;;;1.07;1.07;;;;;;;17.09;81.55;95615.25;4372964;32;20302;-63
2023/07/06 04:33:50;;;;;;;1.70;1.03;;;;;;;17.15;84.02;95613.94;4362023;32;20202;-63
2023/07/06 04:36:17;;;;;;;4.77;1.43;;;;;;;17.31;82.46;95613.34;4365841;32;20246;-63
2023/07/06 04:38:43;;;;;;;1.43;0.63;;;;;;;17.02;83.67;95617.69;4371195;32;20246;-63
2023/07/06 04:41:09;;;;;;;12.93;1.23;;;;;;;17.16;82.72;95609.38;4369758;32;20216;-63
2023/07/06 04:43:34;;;;;;;0.40;0.40;;;;;;;17.03;81.83;95613.88;4363694;32;20235;-63
2023/07/06 04:46:00;;;;;;;1.40;1.30;;;;;;;17.12;82.42;95611.91;4374912;32;20211;-63
2023/07/06 04:48:29;;;;;;;0.93;0.93;;;;;;;17.18;82.24;95613.28;4368111;32;20356;-63
2023/07/06 04:50:55;;;;;;;1.10;1.03;;;;;;;17.14;80.75;95615.06;4363084;32;20196;-63
2023/07/06 04:53:21;;;;;;;0.67;0.67;;;;;;;16.99;82.41;95607.59;4372798;32;20240;-63
2023/07/06 04:55:48;;;;;;;1.00;1.00;;;;;;;17.20;81.85;95609.50;4363788;32;20216;-63
2023/07/06 04:58:13;;;;;;;0.60;0.60;;;;;;;17.08;81.69;95611.00;4344669;32;20205;-63
2023/07/06 05:00:39;;;;;;;0.60;0.60;;;;;;;17.11;82.45;95621.06;4365556;32;20203;-63
2023/07/06 05:03:07;;;;;;;1.03;1.00;;;;;;;16.98;83.14;95616.75;4367303;32;20203;-63
2023/07/06 05:05:36;;;;;;;0.70;0.70;;;;;;;17.31;81.82;95614.12;4375826;32;20223;-63
2023/07/06 05:08:02;;;;;;;0.60;0.60;;;;;;;17.16;81.97;95623.56;4372801;32;20194;-63
2023/07/06 05:10:27;;;;;;;0.90;0.90;;;;;;;17.39;81.87;95621.31;4361586;32;20214;-63
2023/07/06 05:12:55;;;;;;;0.87;0.87;;;;;;;17.35;80.83;95619.63;4360357;32;20255;-63
2023/07/06 05:15:21;;;;;;;1.30;1.20;;;;;;;17.29;82.43;95632.44;4364936;32;20245;-62
2023/07/06 05:17:48;;;;;;;0.80;0.80;;;;;;;17.15;81.88;95630.03;4361390;32;20197;-63
2023/07/06 05:20:16;;;;;;;1.00;1.00;;;;;;;17.49;81.96;95630.84;4361531;32;20189;-63
2023/07/06 05:22:43;;;;;;;0.67;0.67;;;;;;;17.43;81.55;95624.13;4362602;32;20200;-63
2023/07/06 05:25:11;;;;;;;1.10;1.10;;;;;;;17.37;81.45;95620.88;4362481;32;20188;-63
2023/07/06 05:27:37;;;;;;;0.90;0.90;;;;;;;17.53;80.63;95624.50;4362569;32;20192;-64
2023/07/06 05:30:05;;;;;;;1.17;1.17;;;;;;;17.68;80.79;95623.12;4370971;32;20222;-64
2023/07/06 05:32:31;;;;;;;1.40;1.10;;;;;;;17.65;80.10;95623.81;4351133;32;20243;-63
2023/07/06 05:34:57;;;;;;;0.60;0.60;;;;;;;17.65;79.37;95623.81;4357746;32;20193;-63
2023/07/06 05:37:23;;;;;;;1.00;1.00;;;;;;;17.69;78.56;95623.91;4362218;32;20205;-63
2023/07/06 05:39:48;;;;;;;1.30;1.30;;;;;;;17.67;80.56;95621.53;4361917;32;20196;-63
2023/07/06 05:42:14;;;;;;;0.70;0.70;;;;;;;17.74;79.71;95627.16;4361874;32;20212;-63
2023/07/06 05:44:39;;;;;;;0.93;0.93;;;;;;;18.00;78.39;95628.81;4355483;32;20193;-63
2023/07/06 05:47:07;;;;;;;1.10;1.10;;;;;;;18.14;76.84;95624.69;4369875;32;20200;-64
2023/07/06 05:49:33;;;;;;;0.87;0.87;;;;;;;18.05;79.51;95620.53;4359704;32;20237;-63
2023/07/06 05:51:58;;;;;;;0.70;0.70;;;;;;;17.94;79.03;95624.75;4354676;32;20256;-63
2023/07/06 05:54:24;;;;;;;1.10;1.10;;;;;;;18.05;79.79;95631.28;4350888;32;20188;-63
2023/07/06 05:56:49;;;;;;;1.40;1.30;;;;;;;18.24;80.34;95634.22;4374268;32;20214;-63
2023/07/06 05:59:15;;;;;;;1.43;1.33;;;;;;;18.21;78.52;95637.56;4360752;32;20193;-63
2023/07/06 06:01:41;;;;;;;0.80;0.80;;;;;;;18.28;79.37;95637.03;4359417;32;20193;-63
2023/07/06 06:04:06;;;;;;;0.73;0.73;;;;;;;18.41;79.09;95638.59;4366216;32;20260;-63
2023/07/06 06:06:48;;;;;;;0.70;0.70;;;;;;;18.34;79.27;95643.72;4356248;32;20258;-63
2023/07/06 06:09:15;;;;;;;0.90;0.90;;;;;;;18.34;79.29;95646.41;4363409;32;20212;-64
2023/07/06 06:11:40;;;;;;;0.73;0.73;;;;;;;18.42;78.29;95646.31;4362597;32;20189;-63
2023/07/06 06:14:06;;;;;;;6.40;1.60;;;;;;;18.65;78.47;95648.59;4357710;32;20247;-63
2023/07/06 06:16:32;;;;;;;0.57;0.57;;;;;;;18.68;77.29;95643.34;4362193;32;20236;-63
2023/07/06 06:19:02;;;;;;;1.13;1.00;;;;;;;18.50;75.60;95653.47;4370263;32;20196;-63
2023/07/06 06:21:30;;;;;;;1.67;1.57;;;;;;;18.66;77.73;95645.59;4348984;32;20283;-63
2023/07/06 06:23:58;;;;;;;1.60;1.50;;;;;;;18.65;74.18;95648.59;4352955;32;20285;-63
2023/07/06 06:26:24;;;;;;;0.53;0.53;;;;;;;18.67;74.97;95641.78;4366956;32;20201;-63
2023/07/06 06:28:50;;;;;;;2.63;1.30;;;;;;;18.76;73.95;95649.72;4360897;32;20215;-63
2023/07/06 06:31:15;;;;;;;1.13;1.03;;;;;;;18.92;74.77;95653.28;4367775;32;20229;-63
2023/07/06 06:33:41;;;;;;;5.00;2.27;;;;;;;19.04;72.00;95649.81;4358116;32;20192;-63
2023/07/06 06:36:09;;;;;;;11.10;1.77;;;;;;;19.18;72.54;95653.69;4370924;32;20215;-63
2023/07/06 06:38:35;;;;;;;1.40;1.40;;;;;;;18.97;70.37;95650.34;4372643;32;20232;-63
2023/07/06 06:41:07;;;;;;;9.40;1.73;;;;;;;18.72;71.40;95654.97;4368942;32;20207;-63
2023/07/06 06:43:36;;;;;;;1.80;0.77;;;;;;;18.84;72.02;95651.50;4359353;32;20226;-63
2023/07/06 06:46:02;;;;;;;3.40;1.07;;;;;;;18.83;69.47;95652.62;4359764;32;20185;-63
2023/07/06 06:48:28;;;;;;;1.37;1.37;;;;;;;18.73;69.95;95655.75;4371258;32;20202;-63
2023/07/06 06:50:56;;;;;;;0.73;0.73;;;;;;;18.90;70.40;95655.53;4370861;32;20245;-63
2023/07/06 06:53:22;;;;;;;0.50;0.50;;;;;;;18.95;70.27;95654.50;4368715;32;20207;-63
2023/07/06 06:55:48;;;;;;;3.23;1.17;;;;;;;19.04;69.81;95652.50;4363717;32;20254;-63
2023/07/06 06:58:15;;;;;;;0.97;0.93;;;;;;;19.12;70.38;95648.91;4371972;32;20239;-63
2023/07/06 07:00:41;;;;;;;0.43;0.43;;;;;;;19.13;70.66;95653.12;4354199;32;20197;-62
2023/07/06 07:03:11;;;;;;;0.97;0.97;;;;;;;18.83;69.04;95649.94;4360118;32;20204;-63
2023/07/06 07:05:37;;;;;;;1.00;1.00;;;;;;;19.23;70.23;95658.06;4352950;32;20248;-62
2023/07/06 07:08:03;;;;;;;0.73;0.73;;;;;;;19.42;68.14;95649.37;4360989;32;20238;-63
2023/07/06 07:10:29;;;;;;;0.77;0.77;;;;;;;19.66;66.38;95643.16;4371262;32;20189;-64
2023/07/06 07:12:54;;;;;;;0.70;0.70;;;;;;;19.90;65.94;95651.13;4357035;32;20260;-63
2023/07/06 07:15:20;;;;;;;0.90;0.90;;;;;;;20.05;65.82;95654.97;4368791;32;20185;-63
2023/07/06 07:17:45;;;;;;;0.70;0.70;;;;;;;20.25;64.65;95653.94;4372167;32;20308;-63
2023/07/06 07:20:13;;;;;;;0.90;0.90;;;;;;;20.45;64.51;95650.25;4339280;32;20209;-64
2023/07/06 07:22:39;;;;;;;1.47;1.37;;;;;;;20.71;64.34;95649.72;4357877;32;20193;-64
2023/07/06 07:25:06;;;;;;;0.60;0.60;;;;;;;20.95;63.46;95648.72;4361336;32;20278;-64
2023/07/06 07:27:34;;;;;;;1.20;1.20;;;;;;;20.97;64.29;95651.84;4359138;32;20180;-63
2023/07/06 07:30:01;;;;;;;2.10;1.23;;;;;;;20.82;61.83;95652.66;4355993;32;20224;-62
2023/07/06 07:32:29;;;;;;;0.60;0.60;;;;;;;20.87;61.71;95655.06;4369429;32;20228;-62
2023/07/06 07:34:58;;;;;;;0.73;0.73;;;;;;;20.70;62.21;95644.66;4366938;32;20197;-63
2023/07/06 07:37:25;;;;;;;0.83;0.83;;;;;;;20.72;61.14;95637.78;4369073;32;20207;-63
2023/07/06 07:39:50;;;;;;;0.80;0.80;;;;;;;20.58;57.86;95646.31;4372425;32;20196;-63
2023/07/06 07:42:16;;;;;;;1.40;1.30;;;;;;;20.54;59.39;95644.69;4370719;32;20239;-63
2023/07/06 07:44:44;;;;;;;1.23;1.13;;;;;;;20.60;60.62;95643.28;4374240;32;20201;-64
2023/07/06 07:47:10;;;;;;;0.43;0.43;;;;;;;20.65;62.26;95642.22;4365351;32;20203;-62
2023/07/06 07:49:37;;;;;;;0.80;0.77;;;;;;;20.72;63.09;95637.78;4362844;32;20232;-63
2023/07/06 07:52:06;;;;;;;8.27;0.90;;;;;;;20.76;62.92;95641.37;4367507;32;20234;-63
2023/07/06 07:54:31;;;;;;;1.03;1.00;;;;;;;20.78;62.73;95649.09;4352064;32;20241;-63
2023/07/06 07:56:57;;;;;;;0.87;0.87;;;;;;;20.84;64.24;95653.88;4358453;32;20229;-63
2023/07/06 07:59:26;;;;;;;0.40;0.40;;;;;;;20.70;60.87;95641.97;4347246;32;20231;-65
2023/07/06 08:01:53;;;;;;;1.00;1.00;;;;;;;20.76;61.89;95637.88;4358451;32;20211;-62
2023/07/06 08:04:20;;;;;;;0.40;0.40;;;;;;;20.77;60.54;95642.16;4351143;32;20251;-62
2023/07/06 08:06:45;;;;;;;0.40;0.40;;;;;;;20.74;57.27;95645.53;4365704;32;20200;-63
2023/07/06 08:09:13;;;;;;;1.73;0.77;;;;;;;20.84;58.48;95647.69;4370042;32;20193;-64
2023/07/06 08:11:45;;;;;;;0.50;0.50;;;;;;;20.89;58.70;95642.03;4374781;32;20197;-62
2023/07/06 08:14:11;;;;;;;2.77;1.30;;;;;;;20.94;57.44;95636.38;4370158;32;20198;-63
2023/07/06 08:16:40;;;;;;;0.63;0.63;;;;;;;20.94;53.16;95636.38;4373305;32;20281;-63
2023/07/06 08:19:07;;;;;;;0.60;0.60;;;;;;;20.87;53.74;95630.81;4366707;32;20193;-64
2023/07/06 08:21:33;;;;;;;1.93;0.77;;;;;;;20.81;54.67;95629.50;4367344;32;20260;-64
2023/07/06 08:23:59;;;;;;;0.40;0.40;;;;;;;20.81;55.18;95642.97;4376984;32;20193;-62
2023/07/06 08:26:24;;;;;;;0.40;0.40;;;;;;;20.80;53.09;95636.03;4366832;32;20192;-62
2023/07/06 08:28:51;;;;;;;0.60;0.60;;;;;;;20.93;59.35;95640.19;4345143;32;20194;-63
2023/07/06 08:31:20;;;;;;;1.87;1.37;;;;;;;20.79;52.94;95639.84;4373169;32;20232;-63
2023/07/06 08:33:47;;;;;;;0.20;0.20;;;;;;;20.84;58.27;95640.38;4361726;32;20196;-64
2023/07/06 08:36:15;;;;;;;0.40;0.40;;;;;;;20.91;57.34;95639.75;4365853;32;20221;-65
2023/07/06 08:38:43;;;;;;;0.50;0.50;;;;;;;20.95;58.11;95637.94;4371099;32;20366;-62
2023/07/06 08:41:29;;;;;;;0.27;0.27;;;;;;;20.92;55.82;95642.13;4368805;32;20264;-64
2023/07/06 08:43:54;;;;;;;0.60;0.60;;;;;;;20.97;53.56;95634.88;4341693;32;20192;-62
2023/07/06 08:46:20;;;;;;;1.17;1.17;;;;;;;20.95;58.25;95634.44;4373136;32;20197;-62
2023/07/06 08:48:46;;;;;;;0.93;0.93;;;;;;;20.92;52.94;95644.03;4374205;32;20397;-63
2023/07/06 08:51:30;;;;;;;1.07;0.97;;;;;;;20.68;56.82;95638.84;4356056;32;20257;-62
2023/07/06 08:54:01;;;;;;;0.57;0.57;;;;;;;20.48;56.07;95643.38;4360682;32;20529;-63
2023/07/06 08:56:28;;;;;;;0.73;0.73;;;;;;;20.45;54.94;95641.37;4363222;32;20300;-62
2023/07/06 08:58:57;;;;;;;0.40;0.40;;;;;;;20.61;55.74;95649.44;4343823;32;20216;-62
2023/07/06 09:01:24;;;;;;;0.53;0.53;;;;;;;20.57;56.43;95634.00;4361029;32;20190;-62
2023/07/06 09:03:57;;;;;;;1.10;1.10;;;;;;;20.80;58.38;95636.03;4360391;32;20205;-62
2023/07/06 09:06:26;;;;;;;0.80;0.80;;;;;;;20.64;56.48;95633.34;4356750;32;20238;-62
2023/07/06 09:08:56;;;;;;;0.73;0.70;;;;;;;20.85;59.34;95636.53;4361684;32;20211;-62
2023/07/06 09:11:22;;;;;;;0.53;0.53;;;;;;;20.73;59.03;95630.50;4361523;32;20197;-62
2023/07/06 09:13:55;;;;;;;1.13;0.87;;;;;;;20.91;61.95;95634.37;4357975;32;20291;-62
2023/07/06 09:16:21;;;;;;;1.60;0.80;;;;;;;20.68;55.68;95628.06;4374937;32;20180;-62
2023/07/06 09:18:48;;;;;;;0.53;0.53;;;;;;;20.67;54.32;95626.50;4373875;32;20303;-62
2023/07/06 09:21:16;;;;;;;0.93;0.70;;;;;;;20.76;58.01;95629.78;4367701;32;20192;-62
2023/07/06 09:23:45;;;;;;;0.63;0.63;;;;;;;20.70;56.40;95626.56;4360737;32;20241;-62
2023/07/06 09:26:21;;;;;;;1.20;1.17;;;;;;;20.92;60.49;95627.84;4363199;32;20188;-62
2023/07/06 09:28:46;;;;;;;0.83;0.83;;;;;;;20.70;54.67;95628.50;4362467;32;20242;-64
2023/07/06 09:31:21;;;;;;;0.67;0.67;;;;;;;20.72;57.04;95628.91;4361743;32;20193;-62
2023/07/06 09:33:53;;;;;;;0.50;0.50;;;;;;;20.49;54.05;95636.84;4349927;32;20281;-62
2023/07/06 09:36:25;;;;;;;0.87;0.87;;;;;;;20.48;54.87;95633.37;4373532;32;20193;-62
2023/07/06 09:38:51;;;;;;;0.57;0.57;;;;;;;20.61;53.41;95634.06;4371009;32;20197;-62
2023/07/06 09:41:20;;;;;;;2.67;1.17;;;;;;;20.53;55.13;95630.44;4369534;32;20274;-62
2023/07/06 09:43:46;;;;;;;1.40;1.23;;;;;;;20.57;53.72;95631.28;4365794;32;20208;-62
2023/07/06 09:46:14;;;;;;;1.17;1.17;;;;;;;20.68;55.42;95633.44;4342124;32;20215;-61
2023/07/06 09:48:41;;;;;;;0.50;0.50;;;;;;;20.87;53.40;95630.81;4356785;32;20245;-62
2023/07/06 09:51:21;;;;;;;0.80;0.80;;;;;;;20.92;52.54;95633.22;4359840;32;20311;-62
2023/07/06 09:54:00;;;;;;;1.30;0.87;;;;;;;20.99;53.41;95625.28;4341640;32;20355;-62
2023/07/06 09:56:28;;;;;;;0.63;0.63;;;;;;;21.04;52.57;95630.41;4364434;32;26007;-62
2023/07/06 09:58:53;;;;;;;0.70;0.70;;;;;;;21.09;54.59;95632.06;4372080;32;20224;-61
2023/07/06 10:01:41;;;;;;;0.60;0.60;;;;;;;20.91;52.03;95627.06;4353336;32;20216;-62
2023/07/06 10:04:34;;;;;;;3.00;1.33;;;;;;;21.11;52.60;95621.69;4357383;32;20234;-61
2023/07/06 10:07:44;;;;;;;1.13;1.13;;;;;;;21.10;51.27;95631.72;4360537;32;20188;-63
2023/07/06 10:10:34;;;;;;;0.83;0.83;;;;;;;20.93;50.84;95629.41;4334606;32;20238;-63
2023/07/06 10:13:28;;;;;;;1.37;1.07;;;;;;;21.10;53.80;95625.53;4375903;32;20206;-62
2023/07/06 10:16:05;;;;;;;0.63;0.63;;;;;;;20.97;50.79;95624.88;4363937;32;20261;-62
2023/07/06 10:18:39;;;;;;;0.80;0.80;;;;;;;21.17;51.53;95623.78;4370912;32;20187;-61
2023/07/06 10:21:20;;;;;;;0.50;0.50;;;;;;;21.22;52.87;95620.81;4368753;32;20185;-61
2023/07/06 10:23:57;;;;;;;0.70;0.70;;;;;;;21.22;53.56;95626.19;4352933;32;20189;-62
2023/07/06 10:26:34;;;;;;;0.77;0.77;;;;;;;21.18;51.82;95625.34;4362614;32;20193;-62
2023/07/06 10:29:08;;;;;;;0.70;0.70;;;;;;;21.27;52.86;95630.53;4349183;32;20187;-62
2023/07/06 10:31:51;;;;;;;0.77;0.50;;;;;;;21.20;51.61;95628.47;4357438;32;20253;-62
2023/07/06 10:34:54;;;;;;;0.50;0.50;;;;;;;21.17;52.58;95618.37;4361758;32;20250;-62
2023/07/06 10:37:24;;;;;;;0.60;0.60;;;;;;;21.09;53.10;95622.03;4364113;32;20242;-62
2023/07/06 10:40:11;;;;;;;1.43;1.33;;;;;;;21.15;55.56;95623.34;4366290;32;20287;-62
2023/07/06 10:42:48;;;;;;;1.00;1.00;;;;;;;21.16;54.79;95618.72;4357873;32;20197;-59
2023/07/06 10:45:38;;;;;;;1.13;1.07;;;;;;;21.29;56.10;95622.09;4374887;32;20248;-63
2023/07/06 10:48:30;;;;;;;1.80;1.70;;;;;;;21.16;54.31;95610.63;4372270;32;20189;-62
2023/07/06 10:51:09;;;;;;;0.93;0.93;;;;;;;21.19;55.40;95613.41;4349096;32;20305;-62
2023/07/06 10:53:40;;;;;;;1.83;1.27;;;;;;;21.21;52.75;95602.25;4365000;32;20189;-62
2023/07/06 10:56:12;;;;;;;0.90;0.90;;;;;;;21.29;54.04;95606.69;4358759;32;20196;-62
2023/07/06 10:58:45;;;;;;;1.27;0.87;;;;;;;21.35;55.09;95607.19;4352361;32;20256;-62
2023/07/06 11:01:17;;;;;;;1.13;1.03;;;;;;;21.41;55.87;95608.44;4357033;32;20188;-62
2023/07/06 11:03:43;;;;;;;0.47;0.47;;;;;;;21.47;54.39;95607.03;4358968;32;20205;-62
2023/07/06 11:06:15;;;;;;;1.30;1.20;;;;;;;21.40;54.00;95601.53;4358903;32;20217;-62
2023/07/06 11:09:07;;;;;;;0.73;0.73;;;;;;;21.43;51.88;95606.19;4367054;32;20213;-62
2023/07/06 11:11:54;;;;;;;2.57;1.03;;;;;;;21.45;52.49;95607.41;4365956;32;20207;-62
2023/07/06 11:14:42;;;;;;;0.70;0.70;;;;;;;21.53;52.60;95603.72;4355143;32;20243;-62
2023/07/06 11:17:26;;;;;;;0.80;0.80;;;;;;;21.47;52.41;95602.41;4359224;32;20255;-62
2023/07/06 11:19:56;;;;;;;1.07;1.07;;;;;;;21.44;55.02;95607.75;4360004;32;20188;-62
2023/07/06 11:22:24;;;;;;;0.73;0.73;;;;;;;21.37;50.08;95604.91;4358194;32;20203;-62
2023/07/06 11:24:55;;;;;;;0.53;0.47;;;;;;;21.40;52.50;95607.69;4359359;32;20194;-62
2023/07/06 11:27:23;;;;;;;1.17;1.17;;;;;;;21.46;52.14;95598.16;4357053;32;20197;-62
2023/07/06 11:29:48;;;;;;;0.70;0.70;;;;;;;21.52;52.31;95601.38;4362610;32;20182;-62
2023/07/06 11:32:43;;;;;;;0.80;0.80;;;;;;;21.60;51.46;95603.84;4369549;32;20196;-62
2023/07/06 11:35:13;;;;;;;4.80;4.40;;;;;;;21.75;48.58;95598.72;4322768;32;20210;-62
2023/07/06 11:37:45;;;;;;;1.33;1.33;;;;;;;21.93;48.72;95605.22;4371695;32;20188;-62
2023/07/06 11:40:20;;;;;;;1.07;1.07;;;;;;;21.99;51.85;95594.91;4362014;32;20215;-62
2023/07/06 11:43:07;;;;;;;1.13;1.13;;;;;;;22.00;50.69;95597.28;4372559;32;20202;-63
2023/07/06 11:46:14;;;;;;;1.87;1.77;;;;;;;21.98;52.88;95596.03;4331404;32;20185;-62
2023/07/06 11:49:11;;;;;;;1.30;1.30;;;;;;;22.08;51.00;95595.47;4362835;32;20201;-63